Time;durP1;ratioP1;P1;durP2;ratioP2;P2;SDS_P1;SDS_P2;PMS_P1;PMS_P2;Temp;Humidity;BMP_temperature;BMP_pressure;BME280_temperature;BME280_humidity;BME280_pressure;Samples;Min_cycle;Max_cycle;Signal;HPM_P1;HPM_P2
2022/11/12 00:04:18;;;;;;;;;;;7.90;99.90;;;;;;12605977;28;19940;-37
2022/11/12 00:10:20;;;;;;;;;;;8.00;99.90;;;;;;12615192;28;19931;-37
2022/11/12 00:16:22;;;;;;;;;;;8.10;99.90;;;;;;12606712;28;19931;-37
2022/11/12 00:22:23;;;;;;;;;;;8.20;99.90;;;;;;12607940;28;19932;-37
2022/11/12 00:28:25;;;;;;;;;;;8.20;99.90;;;;;;12605324;28;19924;-37
2022/11/12 00:34:27;;;;;;;;;;;8.20;99.90;;;;;;12606102;28;19928;-37
2022/11/12 00:40:29;;;;;;;;;;;8.00;99.90;;;;;;12612994;28;19977;-37
2022/11/12 00:46:31;;;;;;;;;;;7.70;99.90;;;;;;12601099;28;19924;-37
2022/11/12 00:52:32;;;;;;;;;;;7.20;99.90;;;;;;12615163;28;20391;-37
2022/11/12 00:58:35;;;;;;;;;;;6.90;99.90;;;;;;12604295;28;19925;-37
2022/11/12 01:04:36;;;;;;;;;;;7.20;99.90;;;;;;12612780;28;19931;-37
2022/11/12 01:10:38;;;;;;;;;;;7.20;99.90;;;;;;12605295;28;19928;-37
2022/11/12 01:16:41;;;;;;;;;;;7.10;99.90;;;;;;12607307;28;19927;-37
2022/11/12 01:22:43;;;;;;;;;;;7.10;99.90;;;;;;12616581;28;20049;-37
2022/11/12 01:28:45;;;;;;;;;;;7.30;99.90;;;;;;12611045;28;19936;-37
2022/11/12 01:34:46;;;;;;;;;;;7.00;99.90;;;;;;12609020;28;19947;-37
2022/11/12 01:40:48;;;;;;;;;;;7.10;99.90;;;;;;12596486;28;20322;-37
2022/11/12 01:47:19;;;;;;;;;;;7.10;99.90;;;;;;12611258;28;19924;-38
2022/11/12 01:53:24;;;;;;;;;;;7.00;99.90;;;;;;12587416;28;19969;-37
2022/11/12 01:59:28;;;;;;;;;;;7.10;99.90;;;;;;12618979;28;20288;-37
2022/11/12 02:05:30;;;;;;;;;;;7.00;99.90;;;;;;12618458;28;19936;-37
2022/11/12 02:11:32;;;;;;;;;;;7.10;99.90;;;;;;12620762;28;19947;-37
2022/11/12 02:17:33;;;;;;;;;;;7.00;99.90;;;;;;12620804;28;19924;-37
2022/11/12 02:23:36;;;;;;;;;;;7.00;99.90;;;;;;12630203;28;19924;-37
2022/11/12 02:29:45;;;;;;;;;;;7.20;99.90;;;;;;12620645;28;19928;-37
2022/11/12 02:35:47;;;;;;;;;;;7.10;99.90;;;;;;12629472;28;19924;-37
2022/11/12 02:41:48;;;;;;;;;;;6.90;99.90;;;;;;12626885;28;19951;-37
2022/11/12 02:47:50;;;;;;;;;;;6.50;99.90;;;;;;12619961;28;19924;-37
2022/11/12 02:53:52;;;;;;;;;;;6.50;99.90;;;;;;12622402;28;19924;-37
2022/11/12 02:59:53;;;;;;;;;;;6.50;99.90;;;;;;12611508;28;19931;-37
2022/11/12 03:05:56;;;;;;;;;;;6.40;99.90;;;;;;12618212;28;19933;-37
2022/11/12 03:11:58;;;;;;;;;;;6.50;99.90;;;;;;12627064;28;19928;-37
2022/11/12 03:18:00;;;;;;;;;;;6.50;99.90;;;;;;12597555;28;19932;-39
2022/11/12 03:24:02;;;;;;;;;;;6.60;99.90;;;;;;12614880;28;20398;-37
2022/11/12 03:30:03;;;;;;;;;;;6.60;99.90;;;;;;12607730;28;19966;-38
2022/11/12 03:36:05;;;;;;;;;;;6.60;99.90;;;;;;12597183;28;20287;-37
2022/11/12 03:42:07;;;;;;;;;;;6.50;99.90;;;;;;12622864;28;19931;-37
2022/11/12 03:48:09;;;;;;;;;;;6.10;99.90;;;;;;12616973;28;20390;-37
2022/11/12 03:54:11;;;;;;;;;;;5.90;99.90;;;;;;12617168;28;20288;-37
2022/11/12 04:00:13;;;;;;;;;;;5.80;99.90;;;;;;12621755;28;20265;-37
2022/11/12 04:31:37;;;;;;;;;;;5.90;99.90;;;;;;12602385;28;19931;-37
2022/11/12 04:37:45;;;;;;;;;;;5.90;99.90;;;;;;12623434;28;19932;-37
2022/11/12 04:50:11;;;;;;;;;;;5.60;99.90;;;;;;12598057;28;20580;-37
2022/11/12 04:56:13;;;;;;;;;;;5.50;99.90;;;;;;12562768;28;19978;-38
2022/11/12 05:02:15;;;;;;;;;;;5.30;99.90;;;;;;12617286;28;19924;-37
2022/11/12 05:08:17;;;;;;;;;;;5.60;99.90;;;;;;12604450;28;20353;-37
2022/11/12 05:14:18;;;;;;;;;;;5.70;99.90;;;;;;12596362;28;19955;-37
2022/11/12 05:20:20;;;;;;;;;;;5.80;99.90;;;;;;12626801;28;19928;-37
2022/11/12 05:26:22;;;;;;;;;;;5.90;99.90;;;;;;12605435;28;20275;-37
2022/11/12 05:32:23;;;;;;;;;;;6.00;99.90;;;;;;12605250;28;20268;-38
2022/11/12 05:38:25;;;;;;;;;;;6.00;99.90;;;;;;12621778;28;19924;-37
2022/11/12 05:44:27;;;;;;;;;;;5.70;99.90;;;;;;12617168;28;20363;-37
2022/11/12 05:50:29;;;;;;;;;;;5.30;99.90;;;;;;12607648;28;19936;-38
2022/11/12 05:56:52;;;;;;;;;;;5.20;99.90;;;;;;12609759;28;19924;-37
2022/11/12 06:02:56;;;;;;;;;;;5.10;99.90;;;;;;12630354;28;19924;-38
2022/11/12 06:08:57;;;;;;;;;;;5.00;99.90;;;;;;12602758;28;19979;-37
2022/11/12 06:14:59;;;;;;;;;;;5.00;99.90;;;;;;12603618;28;20368;-37
2022/11/12 06:21:21;;;;;;;;;;;5.30;99.90;;;;;;12616009;28;19939;-37
2022/11/12 06:27:23;;;;;;;;;;;5.20;99.90;;;;;;12611568;28;19929;-37
2022/11/12 06:33:25;;;;;;;;;;;5.10;99.90;;;;;;12609009;28;19969;-37
2022/11/12 06:39:27;;;;;;;;;;;5.20;99.90;;;;;;12623326;28;19932;-37
2022/11/12 06:45:28;;;;;;;;;;;5.50;99.90;;;;;;12610394;28;19939;-37
2022/11/12 06:51:30;;;;;;;;;;;5.50;99.90;;;;;;12619870;28;20375;-37
2022/11/12 06:57:32;;;;;;;;;;;5.30;99.90;;;;;;12617189;28;19924;-37
2022/11/12 07:03:34;;;;;;;;;;;5.20;99.90;;;;;;12608684;28;19931;-37
2022/11/12 07:09:35;;;;;;;;;;;5.10;99.90;;;;;;12611995;28;19928;-37
2022/11/12 07:15:37;;;;;;;;;;;5.00;99.90;;;;;;12608131;28;19924;-38
2022/11/12 07:21:39;;;;;;;;;;;5.30;99.90;;;;;;12605558;28;19933;-37
2022/11/12 07:27:41;;;;;;;;;;;5.40;99.90;;;;;;12617507;28;19928;-37
2022/11/12 07:33:43;;;;;;;;;;;5.60;99.90;;;;;;12615316;28;19924;-37
2022/11/12 07:39:45;;;;;;;;;;;5.70;99.90;;;;;;12616682;28;19924;-37
2022/11/12 07:45:47;;;;;;;;;;;5.70;99.90;;;;;;12615374;28;19924;-37
2022/11/12 07:51:48;;;;;;;;;;;5.90;99.90;;;;;;12618547;28;19930;-37
2022/11/12 07:57:52;;;;;;;;;;;5.80;99.90;;;;;;12607689;28;20007;-38
2022/11/12 08:03:54;;;;;;;;;;;5.90;99.90;;;;;;12609464;28;20364;-37
2022/11/12 08:09:55;;;;;;;;;;;6.10;99.90;;;;;;12621716;28;19927;-37
2022/11/12 08:15:57;;;;;;;;;;;6.10;99.90;;;;;;12616439;28;19970;-37
2022/11/12 08:21:59;;;;;;;;;;;5.90;99.90;;;;;;12611209;28;19937;-37
2022/11/12 08:28:01;;;;;;;;;;;6.10;99.90;;;;;;12601523;28;19925;-37
2022/11/12 08:34:10;;;;;;;;;;;6.00;99.90;;;;;;12615074;28;19924;-37
2022/11/12 08:40:13;;;;;;;;;;;5.80;99.90;;;;;;12604234;28;19935;-37
2022/11/12 08:46:14;;;;;;;;;;;5.90;99.90;;;;;;12610675;28;20033;-37
2022/11/12 08:52:16;;;;;;;;;;;6.00;99.90;;;;;;12612990;28;19931;-38
2022/11/12 08:58:18;;;;;;;;;;;6.20;99.90;;;;;;12600279;28;20010;-37
2022/11/12 09:04:20;;;;;;;;;;;6.70;99.90;;;;;;12608581;28;19928;-37
2022/11/12 09:10:21;;;;;;;;;;;6.90;99.90;;;;;;12607396;28;19929;-37
2022/11/12 09:16:23;;;;;;;;;;;6.90;99.90;;;;;;12618742;28;19931;-37
2022/11/12 09:22:25;;;;;;;;;;;6.90;99.90;;;;;;12602871;28;19924;-37
2022/11/12 09:28:26;;;;;;;;;;;7.00;99.90;;;;;;12598058;28;19935;-37
2022/11/12 09:34:29;;;;;;;;;;;7.00;99.90;;;;;;12613373;28;20334;-37
2022/11/12 09:40:49;;;;;;;;;;;7.20;99.90;;;;;;12608905;28;19924;-37
2022/11/12 09:46:56;;;;;;;;;;;7.20;99.90;;;;;;12602986;28;19929;-37
2022/11/12 09:53:07;;;;;;;;;;;7.40;99.90;;;;;;12616191;28;20284;-38
2022/11/12 09:59:12;;;;;;;;;;;7.60;99.90;;;;;;12604217;28;20387;-37
2022/11/12 10:05:23;;;;;;;;;;;7.60;99.90;;;;;;12623215;28;19935;-37
2022/11/12 10:12:30;;;;;;;;;;;7.80;99.90;;;;;;12618722;28;19929;-37
2022/11/12 10:18:20;;;;;;;;;;;8.10;99.90;;;;;;12606924;28;20057;-38
2022/11/12 10:24:23;;;;;;;;;;;8.10;99.90;;;;;;12609340;28;19935;-38
2022/11/12 10:30:25;;;;;;;;;;;8.20;99.90;;;;;;12619145;28;19983;-37
2022/11/12 10:36:29;;;;;;;;;;;8.60;99.90;;;;;;12609660;28;19929;-37
2022/11/12 10:42:30;;;;;;;;;;;8.80;99.90;;;;;;12602390;28;19928;-38
2022/11/12 10:48:32;;;;;;;;;;;8.90;99.90;;;;;;12620098;28;20395;-37
2022/11/12 10:54:36;;;;;;;;;;;8.90;99.90;;;;;;12612282;28;20082;-37
2022/11/12 11:00:51;;;;;;;;;;;8.90;99.90;;;;;;12608919;28;19924;-38
2022/11/12 11:07:11;;;;;;;;;;;9.00;99.90;;;;;;12612663;28;19947;-37
2022/11/12 11:13:16;;;;;;;;;;;9.00;99.90;;;;;;12617857;28;19927;-38
2022/11/12 11:19:18;;;;;;;;;;;9.10;99.90;;;;;;12611004;28;19928;-38
2022/11/12 11:25:26;;;;;;;;;;;9.20;99.90;;;;;;12604766;28;19977;-38
2022/11/12 11:31:37;;;;;;;;;;;9.40;99.90;;;;;;12596366;28;20380;-37
2022/11/12 11:38:01;;;;;;;;;;;9.40;99.90;;;;;;12615396;28;19924;-38
2022/11/12 11:44:22;;;;;;;;;;;9.70;99.90;;;;;;12595924;28;19968;-38
2022/11/12 11:50:26;;;;;;;;;;;9.90;99.90;;;;;;12608808;28;20343;-38
2022/11/12 11:56:30;;;;;;;;;;;10.20;99.90;;;;;;12606562;28;19924;-38
2022/11/12 12:02:48;;;;;;;;;;;10.60;99.90;;;;;;12616465;28;19928;-38
2022/11/12 12:09:08;;;;;;;;;;;11.00;99.90;;;;;;12612516;28;19928;-38
2022/11/12 12:15:10;;;;;;;;;;;10.90;99.90;;;;;;12607703;28;20388;-37
2022/11/12 12:21:15;;;;;;;;;;;10.80;99.90;;;;;;12597313;28;19924;-38
2022/11/12 12:27:20;;;;;;;;;;;10.80;99.90;;;;;;12610038;28;19928;-39
2022/11/12 12:33:29;;;;;;;;;;;11.10;99.90;;;;;;12610878;28;19935;-38
2022/11/12 12:39:47;;;;;;;;;;;11.40;99.90;;;;;;12613469;28;20299;-39
2022/11/12 12:45:49;;;;;;;;;;;11.50;99.90;;;;;;12623841;28;19925;-39
2022/11/12 12:51:50;;;;;;;;;;;11.50;99.90;;;;;;12613154;28;20387;-37
2022/11/12 12:57:59;;;;;;;;;;;11.60;99.90;;;;;;12615317;28;19943;-38
2022/11/12 13:04:07;;;;;;;;;;;11.50;99.90;;;;;;12609169;28;19927;-38
2022/11/12 13:10:28;;;;;;;;;;;11.50;99.90;;;;;;12594622;28;20010;-37
2022/11/12 13:17:05;;;;;;;;;;;11.40;99.90;;;;;;12605322;28;20326;-37
2022/11/12 13:23:10;;;;;;;;;;;11.10;99.90;;;;;;12553046;28;20023;-37
2022/11/12 13:29:18;;;;;;;;;;;11.00;99.90;;;;;;12606013;28;19924;-39
2022/11/12 13:35:23;;;;;;;;;;;10.90;99.90;;;;;;12617840;28;19939;-38
2022/11/12 13:47:47;;;;;;;;;;;10.60;99.90;;;;;;12627611;28;19974;-37
2022/11/12 13:53:48;;;;;;;;;;;10.50;99.90;;;;;;12631670;28;19924;-38
2022/11/12 14:00:19;;;;;;;;;;;10.40;99.90;;;;;;12620252;28;19935;-38
2022/11/12 14:06:44;;;;;;;;;;;10.40;99.90;;;;;;12613955;28;19928;-38
2022/11/12 14:12:46;;;;;;;;;;;10.40;99.90;;;;;;12592504;28;20007;-38
2022/11/12 14:18:51;;;;;;;;;;;10.30;99.90;;;;;;12628337;28;19928;-38
2022/11/12 14:24:57;;;;;;;;;;;10.20;99.90;;;;;;12610193;28;19924;-37
2022/11/12 14:31:00;;;;;;;;;;;10.10;99.90;;;;;;12617582;28;20010;-37
2022/11/12 14:37:02;;;;;;;;;;;10.00;99.90;;;;;;12627918;28;19924;-38
2022/11/12 14:43:04;;;;;;;;;;;9.90;99.90;;;;;;12619210;28;20276;-38
2022/11/12 14:49:15;;;;;;;;;;;9.80;99.90;;;;;;12614761;28;20341;-37
2022/11/12 14:55:19;;;;;;;;;;;9.60;99.90;;;;;;12620009;28;19936;-37
2022/11/12 15:01:28;;;;;;;;;;;9.60;99.90;;;;;;12603774;28;19928;-38
2022/11/12 15:07:55;;;;;;;;;;;9.50;99.90;;;;;;12609120;28;20001;-37
2022/11/12 15:14:00;;;;;;;;;;;9.50;99.90;;;;;;12616317;28;19935;-37
2022/11/12 15:20:11;;;;;;;;;;;9.50;99.90;;;;;;12619359;28;20017;-38
2022/11/12 15:26:21;;;;;;;;;;;9.40;99.90;;;;;;12602558;28;19969;-37
2022/11/12 15:32:23;;;;;;;;;;;9.30;99.90;;;;;;12593700;28;19942;-37
2022/11/12 15:38:27;;;;;;;;;;;9.10;99.90;;;;;;12608617;28;19935;-37
2022/11/12 15:44:30;;;;;;;;;;;8.90;99.90;;;;;;12614702;28;19940;-37
2022/11/12 15:50:32;;;;;;;;;;;8.70;99.90;;;;;;12608872;28;19981;-37
2022/11/12 15:56:34;;;;;;;;;;;8.60;99.90;;;;;;12610146;28;19925;-37
2022/11/12 16:02:36;;;;;;;;;;;8.40;99.90;;;;;;12600832;28;19970;-37
2022/11/12 16:08:37;;;;;;;;;;;8.50;99.90;;;;;;12607835;28;19924;-37
2022/11/12 16:14:39;;;;;;;;;;;8.40;99.90;;;;;;12614713;28;19932;-37
2022/11/12 16:20:41;;;;;;;;;;;8.50;99.90;;;;;;12598437;28;19928;-38
2022/11/12 16:26:42;;;;;;;;;;;8.20;99.90;;;;;;12589843;28;20368;-37
2022/11/12 16:32:45;;;;;;;;;;;8.00;99.90;;;;;;12609590;28;19997;-38
2022/11/12 16:38:47;;;;;;;;;;;8.00;99.90;;;;;;12616762;28;20268;-37
2022/11/12 16:44:49;;;;;;;;;;;8.00;99.90;;;;;;12606365;28;20371;-37
2022/11/12 16:50:52;;;;;;;;;;;7.90;99.90;;;;;;12604321;28;21696;-37
2022/11/12 16:56:55;;;;;;;;;;;8.00;99.90;;;;;;12606158;28;19930;-37
2022/11/12 17:02:57;;;;;;;;;;;7.80;99.90;;;;;;12594816;28;19924;-37
2022/11/12 17:08:59;;;;;;;;;;;7.70;99.90;;;;;;12597449;28;19924;-37
2022/11/12 17:15:00;;;;;;;;;;;7.70;99.90;;;;;;12613240;28;20273;-38
2022/11/12 17:21:17;;;;;;;;;;;7.60;99.90;;;;;;12599975;28;19924;-37
2022/11/12 17:27:18;;;;;;;;;;;7.80;99.90;;;;;;12600869;28;19929;-37
2022/11/12 17:33:20;;;;;;;;;;;7.70;99.90;;;;;;12598368;28;19925;-38
2022/11/12 17:39:22;;;;;;;;;;;7.50;99.90;;;;;;12615259;28;19932;-37
2022/11/12 17:45:24;;;;;;;;;;;7.50;99.90;;;;;;12604109;28;19931;-38
2022/11/12 17:51:26;;;;;;;;;;;7.40;99.90;;;;;;12602561;28;19928;-37
2022/11/12 17:57:28;;;;;;;;;;;7.60;99.90;;;;;;12613057;28;19928;-37
2022/11/12 18:03:30;;;;;;;;;;;7.50;99.90;;;;;;12602945;28;19924;-37
2022/11/12 18:09:31;;;;;;;;;;;7.50;99.90;;;;;;12611435;28;20330;-38
2022/11/12 18:15:33;;;;;;;;;;;7.40;99.90;;;;;;12612374;28;19966;-37
2022/11/12 18:21:35;;;;;;;;;;;7.10;99.90;;;;;;12606536;28;19936;-37
2022/11/12 18:27:37;;;;;;;;;;;7.30;99.90;;;;;;12606230;28;19932;-37
2022/11/12 18:33:39;;;;;;;;;;;7.20;99.90;;;;;;12612831;28;20296;-37
2022/11/12 18:39:40;;;;;;;;;;;7.00;99.90;;;;;;12603649;28;19935;-37
2022/11/12 18:45:42;;;;;;;;;;;7.10;99.90;;;;;;12609962;28;19929;-37
2022/11/12 18:51:44;;;;;;;;;;;6.90;99.90;;;;;;12612732;28;19924;-37
2022/11/12 18:57:45;;;;;;;;;;;7.00;99.90;;;;;;12621686;28;19924;-37
2022/11/12 19:03:50;;;;;;;;;;;7.20;99.90;;;;;;12616878;28;19936;-38
2022/11/12 19:09:52;;;;;;;;;;;7.00;99.90;;;;;;12614842;28;20263;-38
2022/11/12 19:16:00;;;;;;;;;;;7.00;99.90;;;;;;12611164;28;19972;-38
2022/11/12 19:22:02;;;;;;;;;;;7.00;99.90;;;;;;12608482;28;20388;-38
2022/11/12 19:28:04;;;;;;;;;;;7.00;99.90;;;;;;12611557;28;19935;-37
2022/11/12 19:34:06;;;;;;;;;;;7.00;99.90;;;;;;12613628;28;19924;-37
2022/11/12 19:40:09;;;;;;;;;;;7.00;99.90;;;;;;12612125;28;19928;-38
2022/11/12 19:46:12;;;;;;;;;;;7.00;99.90;;;;;;12610114;28;19985;-38
2022/11/12 19:52:14;;;;;;;;;;;7.20;99.90;;;;;;12621525;28;19935;-38
2022/11/12 19:58:16;;;;;;;;;;;7.10;99.90;;;;;;12604986;28;19986;-37
2022/11/12 20:04:17;;;;;;;;;;;7.00;99.90;;;;;;12612296;28;20422;-37
2022/11/12 20:10:24;;;;;;;;;;;7.00;99.90;;;;;;12604899;28;20355;-37
2022/11/12 20:16:26;;;;;;;;;;;7.00;99.90;;;;;;12615940;28;19932;-38
2022/11/12 20:22:28;;;;;;;;;;;7.00;99.90;;;;;;12601936;28;20280;-37
2022/11/12 20:28:33;;;;;;;;;;;6.90;99.90;;;;;;12609262;28;19928;-37
2022/11/12 20:34:35;;;;;;;;;;;6.90;99.90;;;;;;12601118;28;19950;-37
2022/11/12 20:40:37;;;;;;;;;;;7.00;99.90;;;;;;12619080;28;19928;-37
2022/11/12 20:46:39;;;;;;;;;;;6.70;99.90;;;;;;12602376;28;19979;-37
2022/11/12 20:52:41;;;;;;;;;;;6.90;99.90;;;;;;12611893;28;19931;-37
2022/11/12 20:58:43;;;;;;;;;;;6.80;99.90;;;;;;12618965;28;20329;-38
2022/11/12 21:04:46;;;;;;;;;;;6.80;99.90;;;;;;12601046;28;20395;-38
2022/11/12 21:10:48;;;;;;;;;;;6.80;99.90;;;;;;12609112;28;19924;-37
2022/11/12 21:16:50;;;;;;;;;;;6.80;99.90;;;;;;12618775;28;19924;-38
2022/11/12 21:22:52;;;;;;;;;;;6.80;99.90;;;;;;12620282;28;20002;-38
2022/11/12 21:28:54;;;;;;;;;;;6.80;99.90;;;;;;12607317;28;19924;-37
2022/11/12 21:34:55;;;;;;;;;;;6.70;99.90;;;;;;12595434;28;19932;-38
2022/11/12 21:41:01;;;;;;;;;;;6.80;99.90;;;;;;12586791;28;19932;-37
2022/11/12 21:47:03;;;;;;;;;;;6.70;99.90;;;;;;12608802;28;19931;-38
2022/11/12 21:53:05;;;;;;;;;;;6.70;99.90;;;;;;12617321;28;19932;-38
2022/11/12 21:59:06;;;;;;;;;;;6.70;99.90;;;;;;12601979;28;19932;-37
2022/11/12 22:05:08;;;;;;;;;;;6.60;99.90;;;;;;12622623;28;19930;-37
2022/11/12 22:11:11;;;;;;;;;;;6.60;99.90;;;;;;12614540;28;19924;-38
2022/11/12 22:17:13;;;;;;;;;;;6.40;99.90;;;;;;12624779;28;19938;-37
2022/11/12 22:23:15;;;;;;;;;;;6.60;99.90;;;;;;12618775;28;20393;-37
2022/11/12 22:29:16;;;;;;;;;;;6.60;99.90;;;;;;12606740;28;19932;-38
2022/11/12 22:35:18;;;;;;;;;;;6.60;99.90;;;;;;12622731;28;19968;-38
2022/11/12 22:41:21;;;;;;;;;;;6.50;99.90;;;;;;12611017;28;20376;-37
2022/11/12 22:47:23;;;;;;;;;;;6.60;99.90;;;;;;12620416;28;19935;-37
2022/11/12 22:53:25;;;;;;;;;;;6.70;99.90;;;;;;12620211;28;19928;-37
2022/11/12 22:59:26;;;;;;;;;;;6.60;99.90;;;;;;12617950;28;19929;-37
2022/11/12 23:05:28;;;;;;;;;;;6.50;99.90;;;;;;12627454;28;19931;-37
2022/11/12 23:11:30;;;;;;;;;;;6.50;99.90;;;;;;12619544;28;19928;-37
2022/11/12 23:17:32;;;;;;;;;;;6.80;99.90;;;;;;12615583;28;19966;-37
2022/11/12 23:23:34;;;;;;;;;;;6.70;99.90;;;;;;12613890;28;19935;-37
2022/11/12 23:29:36;;;;;;;;;;;6.60;99.90;;;;;;12607865;28;19932;-38
2022/11/12 23:35:38;;;;;;;;;;;6.50;99.90;;;;;;12597765;28;19935;-37
2022/11/12 23:41:39;;;;;;;;;;;6.30;99.90;;;;;;12622394;28;19935;-38
2022/11/12 23:47:41;;;;;;;;;;;6.40;99.90;;;;;;12613040;28;19924;-39
2022/11/12 23:53:43;;;;;;;;;;;6.40;99.90;;;;;;12622445;28;19966;-37
2022/11/12 23:59:44;;;;;;;;;;;6.30;99.90;;;;;;12613140;28;19924;-38
